createdAt,value
2017-04-08T00:00:15.397Z,7.60
2017-04-08T00:01:21.347Z,7.60
2017-04-08T00:02:27.253Z,7.60
2017-04-08T00:03:33.157Z,7.60
2017-04-08T00:04:39.621Z,7.60
2017-04-08T00:05:45.783Z,7.60
2017-04-08T00:06:53.232Z,7.60
2017-04-08T00:09:05.705Z,7.60
2017-04-08T00:10:11.791Z,7.60
2017-04-08T00:11:18.141Z,7.60
2017-04-08T00:12:24.083Z,7.60
2017-04-08T00:13:30.096Z,7.60
2017-04-08T00:14:36.116Z,7.60
2017-04-08T00:15:42.146Z,7.60
2017-04-08T00:16:48.063Z,7.60
2017-04-08T00:17:54.006Z,7.50
2017-04-08T00:19:00.679Z,7.60
2017-04-08T00:20:06.656Z,7.60
2017-04-08T00:22:19.016Z,7.50
2017-04-08T00:23:25.168Z,7.50
2017-04-08T00:24:31.101Z,7.50
2017-04-08T00:25:44.876Z,7.50
2017-04-08T00:26:50.876Z,7.50
2017-04-08T00:27:56.997Z,7.50
2017-04-08T00:29:03.177Z,7.50
2017-04-08T00:30:09.944Z,7.60
2017-04-08T00:31:16.212Z,7.60
2017-04-08T00:32:22.338Z,7.50
2017-04-08T00:33:28.325Z,7.50
2017-04-08T00:34:34.236Z,7.50
2017-04-08T00:35:40.471Z,7.50
2017-04-08T00:36:46.654Z,7.60
2017-04-08T00:37:53.458Z,7.50
2017-04-08T00:38:59.689Z,7.50
2017-04-08T00:40:06.650Z,7.50
2017-04-08T00:41:12.963Z,7.50
2017-04-08T00:42:19.220Z,7.50
2017-04-08T00:43:25.901Z,7.50
2017-04-08T00:44:32.655Z,7.50
2017-04-08T00:45:38.832Z,7.50
2017-04-08T00:46:45.570Z,7.50
2017-04-08T00:47:51.529Z,7.50
2017-04-08T00:48:58.471Z,7.50
2017-04-08T00:50:04.381Z,7.60
2017-04-08T00:51:10.524Z,7.60
2017-04-08T00:52:16.756Z,7.50
2017-04-08T00:53:22.908Z,7.50
2017-04-08T00:54:28.933Z,7.50
2017-04-08T00:55:34.922Z,7.50
2017-04-08T00:56:41.030Z,7.50
2017-04-08T00:57:47.171Z,7.50
2017-04-08T00:58:53.946Z,7.60
2017-04-08T01:00:02.535Z,7.60
2017-04-08T01:01:14.116Z,7.50
2017-04-08T01:02:20.216Z,7.60
2017-04-08T01:03:26.176Z,7.40
2017-04-08T01:04:32.411Z,7.40
2017-04-08T01:05:38.948Z,7.50
2017-04-08T01:06:45.033Z,7.50
2017-04-08T01:07:51.022Z,7.50
2017-04-08T01:08:56.908Z,7.40
2017-04-08T01:10:03.864Z,7.40
2017-04-08T01:11:10.740Z,7.30
2017-04-08T01:12:16.637Z,7.30
2017-04-08T01:13:24.164Z,7.30
2017-04-08T01:14:30.240Z,7.30
2017-04-08T01:15:36.192Z,7.40
2017-04-08T01:16:42.372Z,7.40
2017-04-08T01:17:54.890Z,7.30
2017-04-08T01:19:02.548Z,7.30
2017-04-08T01:20:10.512Z,7.40
2017-04-08T01:21:23.616Z,7.40
2017-04-08T01:22:35.365Z,7.40
2017-04-08T01:23:44.426Z,7.40
2017-04-08T01:24:52.724Z,7.40
2017-04-08T01:25:59.784Z,7.40
2017-04-08T01:27:06.702Z,7.40
2017-04-08T01:28:12.654Z,7.40
2017-04-08T01:29:19.346Z,7.40
2017-04-08T01:30:25.335Z,7.40
2017-04-08T01:31:31.342Z,7.40
2017-04-08T01:32:37.380Z,7.40
2017-04-08T01:33:44.182Z,7.40
2017-04-08T01:34:50.135Z,7.40
2017-04-08T01:35:56.069Z,7.40
2017-04-08T01:37:02.129Z,7.40
2017-04-08T01:38:08.120Z,7.30
2017-04-08T01:39:14.334Z,7.40
2017-04-08T01:40:20.289Z,7.30
2017-04-08T01:41:26.319Z,7.30
2017-04-08T01:42:32.412Z,7.30
2017-04-08T01:43:38.380Z,7.30
2017-04-08T01:44:44.408Z,7.30
2017-04-08T01:45:50.465Z,7.30
2017-04-08T01:46:56.579Z,7.30
2017-04-08T01:48:02.623Z,7.30
2017-04-08T01:49:09.306Z,7.30
2017-04-08T01:50:15.331Z,7.30
2017-04-08T01:51:21.540Z,7.30
2017-04-08T01:52:27.637Z,7.30
2017-04-08T01:53:34.697Z,7.30
2017-04-08T01:54:40.875Z,7.30
2017-04-08T01:55:46.941Z,7.30
2017-04-08T01:56:52.967Z,7.30
2017-04-08T01:57:59.365Z,7.30
2017-04-08T01:59:06.600Z,7.40
2017-04-08T02:00:12.545Z,7.40
2017-04-08T02:01:18.641Z,7.30
2017-04-08T02:02:24.864Z,7.30
2017-04-08T02:03:30.942Z,7.30
2017-04-08T02:04:36.960Z,7.30
2017-04-08T02:05:43.012Z,7.30
2017-04-08T02:06:48.960Z,7.20
2017-04-08T02:07:55.816Z,7.30
2017-04-08T02:09:02.075Z,7.30
2017-04-08T02:10:08.772Z,7.30
2017-04-08T02:11:14.818Z,7.30
2017-04-08T02:12:21.624Z,7.20
2017-04-08T02:13:27.751Z,7.20
2017-04-08T02:14:34.768Z,7.20
2017-04-08T02:15:40.823Z,7.30
2017-04-08T02:16:46.769Z,7.30
2017-04-08T02:17:52.803Z,7.30
2017-04-08T02:18:58.872Z,7.30
2017-04-08T02:20:04.767Z,7.30
2017-04-08T02:21:10.783Z,7.30
2017-04-08T02:22:16.876Z,7.30
2017-04-08T02:23:22.848Z,7.30
2017-04-08T02:24:28.865Z,7.30
2017-04-08T02:25:35.100Z,7.30
2017-04-08T02:26:41.550Z,7.30
2017-04-08T02:27:47.533Z,7.20
2017-04-08T02:28:53.598Z,7.20
2017-04-08T02:29:59.510Z,7.20
2017-04-08T02:31:06.141Z,7.20
2017-04-08T02:32:13.012Z,7.10
2017-04-08T02:33:19.085Z,7.00
2017-04-08T02:34:25.777Z,7.00
2017-04-08T02:35:31.808Z,7.00
2017-04-08T02:36:37.970Z,7.00
2017-04-08T02:37:45.623Z,6.90
2017-04-08T02:38:52.381Z,7.00
2017-04-08T02:39:58.344Z,7.00
2017-04-08T02:41:04.524Z,7.00
2017-04-08T02:42:11.174Z,7.00
2017-04-08T02:43:18.032Z,7.00
2017-04-08T02:44:24.192Z,7.00
2017-04-08T02:46:36.537Z,7.00
2017-04-08T02:47:42.647Z,7.00
2017-04-08T02:48:48.481Z,7.00
2017-04-08T02:49:54.634Z,6.90
2017-04-08T02:51:00.628Z,6.90
2017-04-08T02:52:06.705Z,6.90
2017-04-08T02:53:13.969Z,6.90
2017-04-08T02:54:19.900Z,6.90
2017-04-08T02:55:26.031Z,6.90
2017-04-08T02:56:32.081Z,6.90
2017-04-08T02:57:38.944Z,6.90
2017-04-08T02:58:45.024Z,6.90
2017-04-08T02:59:51.071Z,6.90
2017-04-08T03:00:57.880Z,6.90
2017-04-08T03:02:04.104Z,6.90
2017-04-08T03:03:09.986Z,6.90
2017-04-08T03:04:16.086Z,6.90
2017-04-08T03:05:22.033Z,7.00
2017-04-08T03:06:28.147Z,6.90
2017-04-08T03:07:34.528Z,7.00
2017-04-08T03:08:40.988Z,7.00
2017-04-08T03:10:53.244Z,7.00
2017-04-08T03:11:59.922Z,7.00
2017-04-08T03:13:05.863Z,7.00
2017-04-08T03:14:12.193Z,7.00
2017-04-08T03:15:18.560Z,7.00
2017-04-08T03:16:25.239Z,7.00
2017-04-08T03:17:31.438Z,7.00
2017-04-08T03:18:37.741Z,7.00
2017-04-08T03:19:44.520Z,6.90
2017-04-08T03:20:50.535Z,6.90
2017-04-08T03:21:56.649Z,7.00
2017-04-08T03:23:02.779Z,7.00
2017-04-08T03:24:08.824Z,6.90
2017-04-08T03:25:14.967Z,6.90
2017-04-08T03:26:21.261Z,6.90
2017-04-08T03:27:27.865Z,6.90
2017-04-08T03:28:34.627Z,6.90
2017-04-08T03:29:40.601Z,6.90
2017-04-08T03:30:46.609Z,6.90
2017-04-08T03:31:52.700Z,6.90
2017-04-08T03:32:58.648Z,6.90
2017-04-08T03:34:04.729Z,6.90
2017-04-08T03:35:10.741Z,6.90
2017-04-08T03:36:18.247Z,6.90
2017-04-08T03:37:25.045Z,6.90
2017-04-08T03:38:30.963Z,6.90
2017-04-08T03:39:36.959Z,7.00
2017-04-08T03:40:42.898Z,7.00
2017-04-08T03:41:49.629Z,7.00
2017-04-08T03:42:55.777Z,7.00
2017-04-08T03:44:01.821Z,6.90
2017-04-08T03:45:07.984Z,6.90
2017-04-08T03:46:15.472Z,6.90
2017-04-08T03:47:21.813Z,7.00
2017-04-08T03:48:28.594Z,7.00
2017-04-08T03:49:34.605Z,6.90
2017-04-08T03:50:41.304Z,6.90
2017-04-08T03:51:47.522Z,6.90
2017-04-08T03:52:53.540Z,6.90
2017-04-08T03:53:59.625Z,7.00
2017-04-08T03:55:05.636Z,7.00
2017-04-08T03:56:12.431Z,7.00
2017-04-08T03:57:18.709Z,7.00
2017-04-08T03:58:25.309Z,7.00
2017-04-08T03:59:31.428Z,7.00
2017-04-08T04:00:38.861Z,7.00
2017-04-08T04:01:45.653Z,7.00
2017-04-08T04:02:51.885Z,7.10
2017-04-08T04:03:58.280Z,7.10
2017-04-08T04:05:04.425Z,7.00
2017-04-08T04:06:10.428Z,7.00
2017-04-08T04:07:16.560Z,7.00
2017-04-08T04:08:22.651Z,7.10
2017-04-08T04:09:28.611Z,7.10
2017-04-08T04:10:34.649Z,7.10
2017-04-08T04:11:40.753Z,7.10
2017-04-08T04:12:47.243Z,7.10
2017-04-08T04:13:53.153Z,7.10
2017-04-08T04:14:59.205Z,7.10
2017-04-08T04:16:05.248Z,7.10
2017-04-08T04:17:11.032Z,7.20
2017-04-08T04:18:17.059Z,7.10
2017-04-08T04:19:23.192Z,7.10
2017-04-08T04:20:29.088Z,7.10
2017-04-08T04:21:35.404Z,7.10
2017-04-08T04:22:41.327Z,7.00
2017-04-08T04:23:47.389Z,7.00
2017-04-08T04:24:54.948Z,7.10
2017-04-08T04:26:00.781Z,7.10
2017-04-08T04:27:06.764Z,7.10
2017-04-08T04:28:12.657Z,7.20
2017-04-08T04:29:18.754Z,7.20
2017-04-08T04:30:24.666Z,7.10
2017-04-08T04:31:30.728Z,7.10
2017-04-08T04:32:36.831Z,7.10
2017-04-08T04:33:42.762Z,7.10
2017-04-08T04:34:48.751Z,7.10
2017-04-08T04:35:55.324Z,7.10
2017-04-08T04:37:01.330Z,7.10
2017-04-08T04:38:07.652Z,7.10
2017-04-08T04:39:13.562Z,7.10
2017-04-08T04:40:19.403Z,7.10
2017-04-08T04:41:25.451Z,7.10
2017-04-08T04:42:31.506Z,7.10
2017-04-08T04:43:38.370Z,7.00
2017-04-08T04:44:44.344Z,7.10
2017-04-08T04:45:50.361Z,7.10
2017-04-08T04:46:57.076Z,7.00
2017-04-08T04:48:03.159Z,7.10
2017-04-08T04:49:09.568Z,7.10
2017-04-08T04:50:15.456Z,7.10
2017-04-08T04:51:21.620Z,7.10
2017-04-08T04:52:28.378Z,7.10
2017-04-08T04:53:35.042Z,7.10
2017-04-08T04:54:41.262Z,7.10
2017-04-08T04:55:48.020Z,7.10
2017-04-08T04:56:54.023Z,7.10
2017-04-08T04:57:59.969Z,7.10
2017-04-08T04:59:05.933Z,7.10
2017-04-08T05:00:12.322Z,7.10
2017-04-08T05:01:19.028Z,7.10
2017-04-08T05:02:25.012Z,7.10
2017-04-08T05:03:31.044Z,7.10
2017-04-08T05:04:37.013Z,7.10
2017-04-08T05:05:43.164Z,7.00
2017-04-08T05:06:49.185Z,7.10
2017-04-08T05:07:55.248Z,7.10
2017-04-08T05:09:01.290Z,7.10
2017-04-08T05:10:07.359Z,7.10
2017-04-08T05:11:13.479Z,7.10
2017-04-08T05:12:19.343Z,7.10
2017-04-08T05:13:25.564Z,7.10
2017-04-08T05:14:31.602Z,7.20
2017-04-08T05:15:38.313Z,7.20
2017-04-08T05:16:45.148Z,7.20
2017-04-08T05:17:51.156Z,7.20
2017-04-08T05:18:57.304Z,7.20
2017-04-08T05:20:03.307Z,7.20
2017-04-08T05:21:09.488Z,7.20
2017-04-08T05:22:15.480Z,7.30
2017-04-08T05:23:21.451Z,7.20
2017-04-08T05:24:27.432Z,7.20
2017-04-08T05:25:33.424Z,7.20
2017-04-08T05:26:39.540Z,7.20
2017-04-08T05:27:45.555Z,7.20
2017-04-08T05:28:51.469Z,7.30
2017-04-08T05:29:58.089Z,7.20
2017-04-08T05:31:04.002Z,7.30
2017-04-08T05:32:10.038Z,7.20
2017-04-08T05:33:16.412Z,7.20
2017-04-08T05:34:22.451Z,7.20
2017-04-08T05:35:28.611Z,7.30
2017-04-08T05:36:35.606Z,7.30
2017-04-08T05:37:42.255Z,7.30
2017-04-08T05:38:48.499Z,7.30
2017-04-08T05:39:54.367Z,7.30
2017-04-08T05:41:00.452Z,7.40
2017-04-08T05:42:06.580Z,7.30
2017-04-08T05:43:12.665Z,7.30
2017-04-08T05:44:18.944Z,7.30
2017-04-08T05:45:25.720Z,7.30
2017-04-08T05:46:31.872Z,7.30
2017-04-08T05:47:37.906Z,7.40
2017-04-08T05:48:43.943Z,7.30
2017-04-08T05:49:50.596Z,7.30
2017-04-08T05:50:56.628Z,7.40
2017-04-08T05:52:02.739Z,7.40
2017-04-08T05:53:08.813Z,7.40
2017-04-08T05:54:14.968Z,7.40
2017-04-08T05:55:21.290Z,7.40
2017-04-08T05:56:27.335Z,7.40
2017-04-08T05:57:33.528Z,7.50
2017-04-08T05:58:39.723Z,7.40
2017-04-08T05:59:46.198Z,7.40
2017-04-08T06:00:52.381Z,7.40
2017-04-08T06:01:59.340Z,7.40
2017-04-08T06:03:06.037Z,7.40
2017-04-08T06:04:12.133Z,7.40
2017-04-08T06:05:18.057Z,7.40
2017-04-08T06:06:24.353Z,7.50
2017-04-08T06:07:30.332Z,7.40
2017-04-08T06:08:36.404Z,7.40
2017-04-08T06:09:43.223Z,7.40
2017-04-08T06:10:49.221Z,7.50
2017-04-08T06:11:55.569Z,7.50
2017-04-08T06:13:02.390Z,7.50
2017-04-08T06:14:08.538Z,7.60
2017-04-08T06:15:14.946Z,7.50
2017-04-08T06:16:21.570Z,7.50
2017-04-08T06:17:27.886Z,7.50
2017-04-08T06:18:33.937Z,7.50
2017-04-08T06:19:39.934Z,7.50
2017-04-08T06:20:46.573Z,7.50
2017-04-08T06:21:52.532Z,7.50
2017-04-08T06:22:58.704Z,7.50
2017-04-08T06:24:05.640Z,7.50
2017-04-08T06:25:12.209Z,7.60
2017-04-08T06:26:18.323Z,7.60
2017-04-08T06:28:30.706Z,7.60
2017-04-08T06:29:36.632Z,7.60
2017-04-08T06:30:42.728Z,7.60
2017-04-08T06:31:48.932Z,7.60
2017-04-08T06:32:54.961Z,7.60
2017-04-08T06:34:02.714Z,7.60
2017-04-08T06:35:08.772Z,7.60
2017-04-08T06:36:14.739Z,7.70
2017-04-08T06:37:20.773Z,7.80
2017-04-08T06:38:27.046Z,7.70
2017-04-08T06:39:33.172Z,7.70
2017-04-08T06:40:39.174Z,7.70
2017-04-08T06:41:45.309Z,7.80
2017-04-08T06:42:51.333Z,7.80
2017-04-08T06:43:58.101Z,7.90
2017-04-08T06:45:04.241Z,7.90
2017-04-08T06:46:10.255Z,7.90
2017-04-08T06:47:16.211Z,8.00
2017-04-08T06:48:22.445Z,8.00
2017-04-08T06:49:29.356Z,8.00
2017-04-08T06:50:35.436Z,8.10
2017-04-08T06:52:47.798Z,8.10
2017-04-08T06:53:53.888Z,8.10
2017-04-08T06:55:00.064Z,8.10
2017-04-08T06:56:06.119Z,8.10
2017-04-08T06:57:12.144Z,8.10
2017-04-08T06:58:19.341Z,8.10
2017-04-08T06:59:25.947Z,8.20
2017-04-08T07:00:33.230Z,8.20
2017-04-08T07:01:41.735Z,8.20
2017-04-08T07:02:50.743Z,8.20
2017-04-08T07:03:57.054Z,8.20
2017-04-08T07:05:03.182Z,8.30
2017-04-08T07:06:10.220Z,8.30
2017-04-08T07:07:16.546Z,8.30
2017-04-08T07:08:22.513Z,8.30
2017-04-08T07:09:29.304Z,8.40
2017-04-08T07:10:35.813Z,8.40
2017-04-08T07:11:42.533Z,8.40
2017-04-08T07:12:49.252Z,8.40
2017-04-08T07:13:55.371Z,8.40
2017-04-08T07:15:01.317Z,8.50
2017-04-08T07:16:07.422Z,8.50
2017-04-08T07:17:13.491Z,8.50
2017-04-08T07:18:19.478Z,8.60
2017-04-08T07:19:25.579Z,8.60
2017-04-08T07:20:31.520Z,8.60
2017-04-08T07:21:37.441Z,8.60
2017-04-08T07:22:43.454Z,8.70
2017-04-08T07:23:49.439Z,8.80
2017-04-08T07:24:55.405Z,8.80
2017-04-08T07:26:01.440Z,8.80
2017-04-08T07:27:07.424Z,8.90
2017-04-08T07:28:13.447Z,8.90
2017-04-08T07:29:19.572Z,8.90
2017-04-08T07:30:25.652Z,8.90
2017-04-08T07:31:31.826Z,8.90
2017-04-08T07:32:37.863Z,8.80
2017-04-08T07:33:44.013Z,8.80
2017-04-08T07:34:50.073Z,8.80
2017-04-08T07:35:56.132Z,8.90
2017-04-08T07:37:02.106Z,9.00
2017-04-08T07:38:08.209Z,8.90
2017-04-08T07:39:14.148Z,9.00
2017-04-08T07:40:20.324Z,8.90
2017-04-08T07:41:27.162Z,8.90
2017-04-08T07:42:33.105Z,8.90
2017-04-08T07:43:40.038Z,8.90
2017-04-08T07:44:46.995Z,9.00
2017-04-08T07:45:53.105Z,8.90
2017-04-08T07:46:59.222Z,8.90
2017-04-08T07:48:05.425Z,9.10
2017-04-08T07:49:11.324Z,9.20
2017-04-08T07:50:17.216Z,9.20
2017-04-08T07:51:23.970Z,9.10
2017-04-08T07:52:29.873Z,9.20
2017-04-08T07:53:36.140Z,9.10
2017-04-08T07:54:42.245Z,9.20
2017-04-08T07:55:48.232Z,9.30
2017-04-08T07:56:54.315Z,9.30
2017-04-08T07:58:00.499Z,9.30
2017-04-08T07:59:06.727Z,9.30
2017-04-08T08:00:13.312Z,9.20
2017-04-08T08:01:19.983Z,9.20
2017-04-08T08:02:26.015Z,9.30
2017-04-08T08:03:32.026Z,9.40
2017-04-08T08:04:38.091Z,9.50
2017-04-08T08:05:44.100Z,9.60
2017-04-08T08:06:50.054Z,9.70
2017-04-08T08:07:56.168Z,9.80
2017-04-08T08:09:02.220Z,9.60
2017-04-08T08:10:08.202Z,9.40
2017-04-08T08:11:14.337Z,9.40
2017-04-08T08:12:20.258Z,9.50
2017-04-08T08:13:27.316Z,9.60
2017-04-08T08:14:34.036Z,9.50
2017-04-08T08:15:40.047Z,9.50
2017-04-08T08:16:48.141Z,9.60
2017-04-08T08:17:54.179Z,9.60
2017-04-08T08:19:02.334Z,9.60
2017-04-08T08:20:08.247Z,9.70
2017-04-08T08:21:14.349Z,9.70
2017-04-08T08:22:20.227Z,9.80
2017-04-08T08:23:26.408Z,9.70
2017-04-08T08:24:32.612Z,9.80
2017-04-08T08:25:38.774Z,9.80
2017-04-08T08:26:45.608Z,9.80
2017-04-08T08:27:51.813Z,9.80
2017-04-08T08:28:57.912Z,10.00
2017-04-08T08:30:05.060Z,9.90
2017-04-08T08:31:11.752Z,9.90
2017-04-08T08:32:17.728Z,10.00
2017-04-08T08:33:23.865Z,10.10
2017-04-08T08:34:29.867Z,10.20
2017-04-08T08:35:36.132Z,10.20
2017-04-08T08:36:43.168Z,10.10
2017-04-08T08:37:49.268Z,10.10
2017-04-08T08:38:55.588Z,10.20
2017-04-08T08:40:01.485Z,10.20
2017-04-08T08:41:08.368Z,10.20
2017-04-08T08:42:14.445Z,10.30
2017-04-08T08:43:20.445Z,10.30
2017-04-08T08:44:26.452Z,10.30
2017-04-08T08:45:33.668Z,10.30
2017-04-08T08:46:39.876Z,10.40
2017-04-08T08:47:47.051Z,10.40
2017-04-08T08:48:53.793Z,10.50
2017-04-08T08:49:59.973Z,10.60
2017-04-08T08:51:05.950Z,10.50
2017-04-08T08:52:12.492Z,10.50
2017-04-08T08:53:19.359Z,10.50
2017-04-08T08:54:25.370Z,10.50
2017-04-08T08:55:31.381Z,10.40
2017-04-08T08:56:37.352Z,10.30
2017-04-08T08:57:43.463Z,10.30
2017-04-08T08:58:49.376Z,10.30
2017-04-08T09:01:39.769Z,10.20
2017-04-08T09:02:49.761Z,10.30
2017-04-08T09:03:56.408Z,10.30
2017-04-08T09:05:02.474Z,10.40
2017-04-08T09:06:09.517Z,10.40
2017-04-08T09:07:15.812Z,10.50
2017-04-08T09:08:21.855Z,10.60
2017-04-08T09:09:27.829Z,10.60
2017-04-08T09:10:34.645Z,10.50
2017-04-08T09:11:40.796Z,10.50
2017-04-08T09:12:46.841Z,10.60
2017-04-08T09:13:52.993Z,10.60
2017-04-08T09:14:58.874Z,10.60
2017-04-08T09:16:06.241Z,10.60
2017-04-08T09:17:12.963Z,10.70
2017-04-08T09:18:19.754Z,10.60
2017-04-08T09:19:25.900Z,10.60
2017-04-08T09:20:31.813Z,10.80
2017-04-08T09:21:37.975Z,10.80
2017-04-08T09:22:44.018Z,10.90
2017-04-08T09:23:50.221Z,11.00
2017-04-08T09:24:56.359Z,11.00
2017-04-08T09:26:03.213Z,11.00
2017-04-08T09:27:10.020Z,10.90
2017-04-08T09:28:16.102Z,10.90
2017-04-08T09:29:22.945Z,10.90
2017-04-08T09:30:29.080Z,11.00
2017-04-08T09:31:35.174Z,11.10
2017-04-08T09:32:41.303Z,11.10
2017-04-08T09:33:47.344Z,11.20
2017-04-08T09:34:53.620Z,11.20
2017-04-08T09:35:59.752Z,11.30
2017-04-08T09:37:05.776Z,11.20
2017-04-08T09:38:11.850Z,11.10
2017-04-08T09:39:18.957Z,11.00
2017-04-08T09:40:25.097Z,11.20
2017-04-08T09:41:31.325Z,11.30
2017-04-08T09:42:38.257Z,11.50
2017-04-08T09:43:44.411Z,11.60
2017-04-08T09:44:50.308Z,11.40
2017-04-08T09:45:58.222Z,11.50
2017-04-08T09:47:04.311Z,11.50
2017-04-08T09:48:12.144Z,11.50
2017-04-08T09:49:18.887Z,11.40
2017-04-08T09:50:24.798Z,11.50
2017-04-08T09:51:30.885Z,11.40
2017-04-08T09:52:37.485Z,11.40
2017-04-08T09:53:43.501Z,11.20
2017-04-08T09:54:49.508Z,11.40
2017-04-08T09:55:55.565Z,11.40
2017-04-08T10:00:10.900Z,11.30
2017-04-08T10:04:27.812Z,11.50
2017-04-08T10:05:34.002Z,11.60
2017-04-08T10:06:39.826Z,11.60
2017-04-08T10:07:46.045Z,11.60
2017-04-08T10:08:52.025Z,11.60
2017-04-08T10:09:58.396Z,11.40
2017-04-08T10:11:04.794Z,11.40
2017-04-08T10:12:10.713Z,11.40
2017-04-08T10:13:16.803Z,11.30
2017-04-08T10:14:23.504Z,11.40
2017-04-08T10:15:29.570Z,11.50
2017-04-08T10:16:35.751Z,11.50
2017-04-08T10:17:41.798Z,11.60
2017-04-08T10:18:47.772Z,11.50
2017-04-08T10:19:54.635Z,11.40
2017-04-08T10:21:00.757Z,11.30
2017-04-08T10:22:06.746Z,11.50
2017-04-08T10:23:12.738Z,11.70
2017-04-08T10:24:19.264Z,11.90
2017-04-08T10:25:25.585Z,11.70
2017-04-08T10:26:31.462Z,11.70
2017-04-08T10:27:37.653Z,11.80
2017-04-08T10:28:43.757Z,11.70
2017-04-08T10:29:49.830Z,11.70
2017-04-08T10:30:55.802Z,11.60
2017-04-08T10:32:01.783Z,11.70
2017-04-08T10:33:08.624Z,11.70
2017-04-08T10:34:15.768Z,11.70
2017-04-08T10:35:22.502Z,11.50
2017-04-08T10:36:28.622Z,11.60
2017-04-08T10:37:35.470Z,11.70
2017-04-08T10:38:41.521Z,11.80
2017-04-08T10:39:48.105Z,11.70
2017-04-08T10:40:55.687Z,11.80
2017-04-08T10:43:08.578Z,11.80
2017-04-08T10:44:14.672Z,11.70
2017-04-08T10:45:20.738Z,11.60
2017-04-08T10:46:27.513Z,11.80
2017-04-08T10:47:33.570Z,11.70
2017-04-08T10:48:40.261Z,11.50
2017-04-08T10:49:46.376Z,11.60
2017-04-08T10:50:52.398Z,11.60
2017-04-08T10:51:59.215Z,11.70
2017-04-08T10:53:05.218Z,11.80
2017-04-08T10:54:11.375Z,11.90
2017-04-08T10:55:19.047Z,11.70
2017-04-08T10:56:25.213Z,11.70
2017-04-08T10:57:32.993Z,11.80
2017-04-08T10:58:39.775Z,12.00
2017-04-08T10:59:46.793Z,11.90
2017-04-08T11:00:53.893Z,12.00
2017-04-08T11:01:59.954Z,12.00
2017-04-08T11:03:05.963Z,12.10
2017-04-08T11:04:12.012Z,11.90
2017-04-08T11:05:18.051Z,12.00
2017-04-08T11:06:24.912Z,11.80
2017-04-08T11:07:30.932Z,11.80
2017-04-08T11:08:36.921Z,11.90
2017-04-08T11:09:43.212Z,11.80
2017-04-08T11:10:49.979Z,11.80
2017-04-08T11:11:56.783Z,11.70
2017-04-08T11:13:02.913Z,11.90
2017-04-08T11:14:08.933Z,11.90
2017-04-08T11:15:14.984Z,11.80
2017-04-08T11:16:20.996Z,11.90
2017-04-08T11:17:26.944Z,11.80
2017-04-08T11:18:32.961Z,11.80
2017-04-08T11:19:38.882Z,11.80
2017-04-08T11:20:45.860Z,11.70
2017-04-08T11:21:51.743Z,11.80
2017-04-08T11:22:57.790Z,11.90
2017-04-08T11:25:11.091Z,11.90
2017-04-08T11:26:17.168Z,11.80
2017-04-08T11:27:23.150Z,11.70
2017-04-08T11:28:29.300Z,11.70
2017-04-08T11:29:35.993Z,11.60
2017-04-08T11:30:42.034Z,11.60
2017-04-08T11:31:47.944Z,11.50
2017-04-08T11:32:53.864Z,11.50
2017-04-08T11:34:00.027Z,11.70
2017-04-08T11:35:06.081Z,11.70
2017-04-08T11:36:12.070Z,11.80
2017-04-08T11:37:18.824Z,11.80
2017-04-08T11:38:24.667Z,11.80
2017-04-08T11:39:31.068Z,11.80
2017-04-08T11:40:37.199Z,11.60
2017-04-08T11:41:43.349Z,11.50
2017-04-08T11:42:49.413Z,11.50
2017-04-08T11:43:56.252Z,11.40
2017-04-08T11:45:02.648Z,11.40
2017-04-08T11:46:08.737Z,11.40
2017-04-08T11:47:14.804Z,11.40
2017-04-08T11:48:21.094Z,11.40
2017-04-08T11:49:27.145Z,11.40
2017-04-08T11:50:33.291Z,11.50
2017-04-08T11:51:39.788Z,11.40
2017-04-08T11:52:45.744Z,11.40
2017-04-08T11:53:52.617Z,11.40
2017-04-08T11:54:58.630Z,11.40
2017-04-08T11:56:04.706Z,11.40
2017-04-08T11:57:10.681Z,11.40
2017-04-08T11:58:16.808Z,11.40
2017-04-08T11:59:23.519Z,11.30
2017-04-08T12:00:29.481Z,11.30
2017-04-08T12:01:35.633Z,11.40
2017-04-08T12:02:41.621Z,11.30
2017-04-08T12:03:48.304Z,11.30
2017-04-08T12:04:54.312Z,11.30
2017-04-08T12:06:00.459Z,11.30
2017-04-08T12:07:06.561Z,11.40
2017-04-08T12:08:12.934Z,11.40
2017-04-08T12:09:18.909Z,11.40
2017-04-08T12:10:25.721Z,11.50
2017-04-08T12:11:31.872Z,11.50
2017-04-08T12:12:37.949Z,11.50
2017-04-08T12:15:33.886Z,11.60
2017-04-08T12:16:40.002Z,11.60
2017-04-08T12:17:45.879Z,11.60
2017-04-08T12:18:52.065Z,11.50
2017-04-08T12:19:58.988Z,11.50
2017-04-08T12:21:05.696Z,11.40
2017-04-08T12:22:11.868Z,11.40
2017-04-08T12:23:18.760Z,11.40
2017-04-08T12:24:24.956Z,11.40
2017-04-08T12:25:31.893Z,11.30
2017-04-08T12:26:37.996Z,11.30
2017-04-08T12:27:44.049Z,11.40
2017-04-08T12:28:50.332Z,11.40
2017-04-08T12:29:57.040Z,11.30
2017-04-08T12:31:03.015Z,11.50
2017-04-08T12:32:09.065Z,11.40
2017-04-08T12:33:15.772Z,11.50
2017-04-08T12:34:22.693Z,11.40
2017-04-08T12:35:28.690Z,11.40
2017-04-08T12:36:35.530Z,11.40
2017-04-08T12:37:41.561Z,11.50
2017-04-08T12:38:47.634Z,11.60
2017-04-08T12:39:54.477Z,11.60
2017-04-08T12:41:00.538Z,11.70
2017-04-08T12:42:06.614Z,11.70
2017-04-08T12:43:12.609Z,11.80
2017-04-08T12:44:18.833Z,11.90
2017-04-08T12:45:25.274Z,11.90
2017-04-08T12:46:31.322Z,11.90
2017-04-08T12:47:37.427Z,11.60
2017-04-08T12:48:43.429Z,11.60
2017-04-08T12:50:55.897Z,11.70
2017-04-08T12:52:01.894Z,11.80
2017-04-08T12:53:08.580Z,11.70
2017-04-08T12:54:15.445Z,11.70
2017-04-08T12:55:21.459Z,11.70
2017-04-08T12:56:27.448Z,11.70
2017-04-08T12:57:33.412Z,11.60
2017-04-08T12:58:39.435Z,11.70
2017-04-08T12:59:45.565Z,11.70
2017-04-08T13:00:51.625Z,11.70
2017-04-08T13:01:58.612Z,11.70
2017-04-08T13:05:01.344Z,11.70
2017-04-08T13:06:07.350Z,11.70
2017-04-08T13:07:14.384Z,11.70
2017-04-08T13:08:20.540Z,11.80
2017-04-08T13:09:30.155Z,11.90
2017-04-08T13:12:22.645Z,12.00
2017-04-08T13:13:28.609Z,12.00
2017-04-08T13:14:34.754Z,12.10
2017-04-08T13:15:40.816Z,12.10
2017-04-08T13:16:46.861Z,12.00
2017-04-08T13:17:52.964Z,12.00
2017-04-08T13:18:58.957Z,12.00
2017-04-08T13:21:39.472Z,12.00
2017-04-08T13:22:45.506Z,11.90
2017-04-08T13:23:58.815Z,11.90
2017-04-08T13:25:04.925Z,12.10
2017-04-08T13:26:11.116Z,12.00
2017-04-08T13:27:17.280Z,12.00
2017-04-08T13:28:23.929Z,11.80
2017-04-08T13:31:19.468Z,11.90
2017-04-08T13:32:26.394Z,11.70
2017-04-08T13:33:32.452Z,11.70
2017-04-08T13:34:38.510Z,11.70
2017-04-08T13:35:45.084Z,11.70
2017-04-08T13:36:51.276Z,11.60
2017-04-08T13:39:46.380Z,11.60
2017-04-08T13:40:52.330Z,11.50
2017-04-08T13:41:58.430Z,11.50
2017-04-08T13:43:05.063Z,11.60
2017-04-08T13:44:11.058Z,11.60
2017-04-08T13:45:17.264Z,11.50
2017-04-08T13:46:23.371Z,11.50
2017-04-08T13:47:29.216Z,11.60
2017-04-08T13:48:36.005Z,11.50
2017-04-08T13:49:41.936Z,11.60
2017-04-08T13:50:48.075Z,11.70
2017-04-08T13:51:54.143Z,11.70
2017-04-08T13:53:00.412Z,11.60
2017-04-08T13:54:06.438Z,11.70
2017-04-08T13:55:12.483Z,11.70
2017-04-08T13:56:18.540Z,11.70
2017-04-08T13:58:30.735Z,11.60
2017-04-08T13:59:36.748Z,11.60
2017-04-08T14:00:42.894Z,11.60
2017-04-08T14:01:48.742Z,11.60
2017-04-08T14:02:54.908Z,11.70
2017-04-08T14:04:02.777Z,11.70
2017-04-08T14:05:08.944Z,11.70
2017-04-08T14:06:14.918Z,11.70
2017-04-08T14:07:21.475Z,11.70
2017-04-08T14:08:28.493Z,11.70
2017-04-08T14:09:34.373Z,11.80
2017-04-08T14:10:40.558Z,11.80
2017-04-08T14:11:46.583Z,11.80
2017-04-08T14:12:52.735Z,11.70
2017-04-08T14:13:58.709Z,11.60
2017-04-08T14:15:05.019Z,11.60
2017-04-08T14:16:11.124Z,11.60
2017-04-08T14:17:17.053Z,11.60
2017-04-08T14:18:23.120Z,11.80
2017-04-08T14:19:29.973Z,11.60
2017-04-08T14:20:36.033Z,11.70
2017-04-08T14:21:41.921Z,11.60
2017-04-08T14:22:47.983Z,11.60
2017-04-08T14:23:54.096Z,11.70
2017-04-08T14:25:00.039Z,11.60
2017-04-08T14:26:06.023Z,11.60
2017-04-08T14:27:12.278Z,11.60
2017-04-08T14:28:18.909Z,11.70
2017-04-08T14:29:24.956Z,11.70
2017-04-08T14:30:31.151Z,11.70
2017-04-08T14:31:37.930Z,11.60
2017-04-08T14:32:43.938Z,11.60
2017-04-08T14:33:49.969Z,11.70
2017-04-08T14:34:55.888Z,11.70
2017-04-08T14:36:01.965Z,11.70
2017-04-08T14:37:08.120Z,11.80
2017-04-08T14:38:14.073Z,11.70
2017-04-08T14:39:20.552Z,11.80
2017-04-08T14:40:26.498Z,11.80
2017-04-08T14:41:33.297Z,11.80
2017-04-08T14:42:39.312Z,11.80
2017-04-08T14:43:45.340Z,11.70
2017-04-08T14:44:51.409Z,11.80
2017-04-08T14:45:57.636Z,11.80
2017-04-08T14:47:03.814Z,11.80
2017-04-08T14:48:09.884Z,11.80
2017-04-08T14:49:15.993Z,11.80
2017-04-08T14:50:22.812Z,11.70
2017-04-08T14:51:34.385Z,11.70
2017-04-08T14:52:50.126Z,11.80
2017-04-08T14:54:01.181Z,11.70
2017-04-08T14:55:07.122Z,11.80
2017-04-08T14:56:13.198Z,11.70
2017-04-08T14:57:19.095Z,11.80
2017-04-08T14:58:25.572Z,11.80
2017-04-08T14:59:32.310Z,11.70
2017-04-08T15:00:38.221Z,11.80